createdAt,value
2019-06-10T00:01:43.439Z,54.20
2019-06-10T00:04:13.407Z,60.23
2019-06-10T00:06:43.773Z,60.63
2019-06-10T00:09:13.955Z,49.67
2019-06-10T00:11:44.229Z,53.73
2019-06-10T00:14:13.701Z,52.50
2019-06-10T00:16:43.872Z,60.63
2019-06-10T00:19:14.270Z,60.83
2019-06-10T00:21:44.694Z,60.63
2019-06-10T00:24:14.498Z,64.67
2019-06-10T00:26:45.028Z,59.00
2019-06-10T00:29:14.824Z,56.53
2019-06-10T00:31:44.666Z,59.90
2019-06-10T00:34:14.434Z,62.10
2019-06-10T00:36:44.507Z,59.63
2019-06-10T00:39:14.637Z,58.30
2019-06-10T00:41:45.312Z,63.20
2019-06-10T00:44:15.387Z,61.23
2019-06-10T00:46:45.784Z,70.67
2019-06-10T00:49:15.228Z,66.77
2019-06-10T00:51:44.651Z,54.33
2019-06-10T00:54:15.687Z,61.73
2019-06-10T00:56:45.786Z,64.00
2019-06-10T00:59:15.800Z,60.33
2019-06-10T01:01:45.965Z,58.83
2019-06-10T01:04:16.438Z,62.60
2019-06-10T01:06:46.155Z,57.23
2019-06-10T01:09:16.543Z,56.60
2019-06-10T01:11:46.908Z,57.73
2019-06-10T01:14:16.983Z,52.23
2019-06-10T01:16:46.744Z,56.73
2019-06-10T01:19:17.144Z,57.77
2019-06-10T01:21:47.571Z,51.97
2019-06-10T01:24:17.507Z,59.53
2019-06-10T01:26:47.112Z,52.93
2019-06-10T01:29:20.835Z,52.77
2019-06-10T01:31:51.065Z,59.53
2019-06-10T01:34:21.808Z,55.67
2019-06-10T01:36:50.916Z,57.90
2019-06-10T01:39:22.676Z,61.23
2019-06-10T01:41:51.387Z,49.00
2019-06-10T01:44:22.031Z,60.70
2019-06-10T01:46:51.645Z,55.93
2019-06-10T01:49:22.009Z,59.63
2019-06-10T01:51:51.933Z,53.90
2019-06-10T01:54:22.234Z,53.10
2019-06-10T01:56:52.243Z,56.50
2019-06-10T01:59:22.271Z,54.93
2019-06-10T02:01:52.241Z,60.27
2019-06-10T02:04:22.918Z,56.77
2019-06-10T02:06:53.145Z,56.83
2019-06-10T02:09:23.317Z,56.23
2019-06-10T02:11:53.138Z,52.17
2019-06-10T02:14:24.154Z,52.47
2019-06-10T02:16:53.557Z,50.45
2019-06-10T02:19:23.552Z,47.57
2019-06-10T02:21:53.398Z,47.37
2019-06-10T02:24:23.545Z,51.33
2019-06-10T02:26:53.446Z,54.90
2019-06-10T02:29:23.700Z,51.27
2019-06-10T02:31:53.423Z,54.33
2019-06-10T02:34:27.137Z,50.23
2019-06-10T02:36:54.007Z,44.67
2019-06-10T02:39:32.324Z,45.45
2019-06-10T02:41:54.265Z,43.28
2019-06-10T02:44:31.915Z,46.20
2019-06-10T02:46:54.684Z,45.33
2019-06-10T02:49:46.901Z,55.27
2019-06-10T02:51:55.563Z,47.85
2019-06-10T02:54:31.354Z,51.10
2019-06-10T02:56:55.505Z,52.88
2019-06-10T02:59:28.980Z,54.63
2019-06-10T03:01:55.482Z,52.43
2019-06-10T03:04:31.451Z,51.35
2019-06-10T03:06:56.315Z,49.90
2019-06-10T03:09:31.393Z,50.05
2019-06-10T03:11:57.445Z,50.25
2019-06-10T03:14:28.188Z,48.42
2019-06-10T03:16:58.594Z,44.63
2019-06-10T03:19:41.837Z,46.40
2019-06-10T03:21:59.405Z,42.62
2019-06-10T03:24:29.472Z,40.73
2019-06-10T03:26:59.283Z,42.43
2019-06-10T03:29:28.989Z,41.28
2019-06-10T03:31:58.976Z,41.42
2019-06-10T03:34:36.349Z,43.87
2019-06-10T03:37:02.335Z,37.07
2019-06-10T03:39:32.244Z,44.18
2019-06-10T03:42:02.599Z,41.10
2019-06-10T03:44:33.038Z,39.85
2019-06-10T03:47:03.515Z,38.00
2019-06-10T03:49:46.482Z,38.28
2019-06-10T03:52:04.364Z,41.25
2019-06-10T03:54:34.716Z,39.10
2019-06-10T03:57:04.676Z,36.70
2019-06-10T03:59:34.832Z,37.73
2019-06-10T04:02:05.152Z,39.35
2019-06-10T04:04:35.423Z,41.10
2019-06-10T04:07:05.625Z,39.80
2019-06-10T04:09:35.159Z,38.33
2019-06-10T04:12:05.474Z,35.78
2019-06-10T04:14:36.335Z,39.53
2019-06-10T04:17:07.241Z,38.55
2019-06-10T04:19:37.645Z,39.78
2019-06-10T04:22:09.318Z,36.80
2019-06-10T04:24:39.715Z,36.20
2019-06-10T04:27:09.469Z,37.20
2019-06-10T04:29:39.546Z,34.55
2019-06-10T04:32:09.629Z,35.65
2019-06-10T04:34:39.709Z,38.67
2019-06-10T04:37:09.464Z,35.23
2019-06-10T04:39:39.599Z,40.08
2019-06-10T04:42:09.954Z,34.08
2019-06-10T04:44:42.199Z,34.58
2019-06-10T04:47:12.069Z,35.92
2019-06-10T04:49:42.862Z,34.25
2019-06-10T04:52:12.312Z,35.70
2019-06-10T04:54:42.758Z,37.78
2019-06-10T04:57:13.075Z,37.80
2019-06-10T04:59:43.307Z,31.82
2019-06-10T05:02:13.469Z,35.08
2019-06-10T05:04:43.547Z,32.38
2019-06-10T05:07:13.647Z,32.85
2019-06-10T05:09:43.879Z,32.85
2019-06-10T05:12:14.121Z,30.52
2019-06-10T05:14:44.202Z,31.57
2019-06-10T05:17:14.274Z,31.27
2019-06-10T05:19:44.822Z,31.52
2019-06-10T05:33:04.566Z,30.23
2019-06-10T05:35:35.161Z,35.55
2019-06-10T05:38:05.152Z,31.40
2019-06-10T05:40:35.554Z,33.25
2019-06-10T05:43:06.270Z,31.20
2019-06-10T05:45:36.387Z,34.00
2019-06-10T05:48:06.761Z,31.80
2019-06-10T05:50:36.838Z,30.55
2019-06-10T05:53:06.911Z,30.57
2019-06-10T05:55:37.010Z,31.82
2019-06-10T05:58:07.270Z,31.60
2019-06-10T06:00:36.807Z,35.52
2019-06-10T06:03:07.555Z,32.13
2019-06-10T06:05:38.278Z,35.43
2019-06-10T06:08:09.133Z,34.55
2019-06-10T06:10:39.393Z,35.52
2019-06-10T06:13:09.743Z,39.00
2019-06-10T06:15:42.253Z,35.50
2019-06-10T06:18:13.433Z,34.03
2019-06-10T06:20:45.148Z,31.10
2019-06-10T06:23:15.545Z,34.88
2019-06-10T06:25:47.051Z,33.42
2019-06-10T06:28:16.321Z,38.55
2019-06-10T06:30:46.395Z,33.28
2019-06-10T06:33:16.253Z,32.42
2019-06-10T06:35:46.700Z,37.40
2019-06-10T06:38:17.306Z,34.23
2019-06-10T06:40:47.878Z,34.13
2019-06-10T06:43:18.115Z,32.75
2019-06-10T06:45:48.269Z,32.25
2019-06-10T06:48:18.312Z,43.78
2019-06-10T06:51:01.769Z,32.05
2019-06-10T06:53:28.929Z,32.45
2019-06-10T06:55:48.581Z,33.75
2019-06-10T06:58:18.363Z,36.10
2019-06-10T07:01:03.656Z,34.40
2019-06-10T07:03:19.110Z,33.63
2019-06-10T07:05:49.787Z,30.48
2019-06-10T07:08:19.878Z,32.25
2019-06-10T07:10:52.104Z,35.45
2019-06-10T07:13:22.138Z,33.58
2019-06-10T07:15:53.319Z,33.15
2019-06-10T07:18:23.235Z,33.88
2019-06-10T07:20:54.090Z,29.67
2019-06-10T07:23:23.397Z,30.60
2019-06-10T07:25:53.995Z,30.72
2019-06-10T07:28:23.707Z,30.52
2019-06-10T07:30:55.352Z,30.65
2019-06-10T07:33:24.196Z,31.17
2019-06-10T07:35:56.574Z,30.92
2019-06-10T07:38:26.281Z,33.98
2019-06-10T07:40:55.547Z,34.98
2019-06-10T07:43:26.153Z,32.17
2019-06-10T07:45:56.186Z,30.70
2019-06-10T07:48:25.818Z,26.87
2019-06-10T07:50:55.394Z,26.48
2019-06-10T07:53:24.827Z,29.85
2019-06-10T07:55:54.770Z,31.07
2019-06-10T07:58:24.619Z,27.98
2019-06-10T08:00:54.368Z,26.57
2019-06-10T08:03:24.185Z,26.80
2019-06-10T08:05:54.269Z,25.43
2019-06-10T08:08:24.410Z,33.10
2019-06-10T08:10:54.448Z,29.00
2019-06-10T08:13:24.831Z,30.30
2019-06-10T08:15:54.591Z,26.30
2019-06-10T08:18:24.028Z,26.90
2019-06-10T08:20:53.788Z,29.85
2019-06-10T08:23:23.931Z,29.37
2019-06-10T08:25:57.597Z,28.90
2019-06-10T08:28:24.359Z,28.60
2019-06-10T08:30:54.752Z,29.85
2019-06-10T08:33:25.148Z,28.85
2019-06-10T08:36:00.168Z,27.90
2019-06-10T08:38:26.270Z,27.37
2019-06-10T08:40:56.671Z,25.15
2019-06-10T08:43:27.387Z,28.67
2019-06-10T08:45:57.790Z,26.48
2019-06-10T08:48:27.868Z,28.05
2019-06-10T08:50:58.268Z,29.00
2019-06-10T08:53:28.488Z,25.37
2019-06-10T08:55:59.080Z,27.52
2019-06-10T08:58:29.796Z,24.80
2019-06-10T09:01:02.126Z,27.50
2019-06-10T09:03:32.454Z,28.85
2019-06-10T09:06:02.694Z,25.10
2019-06-10T09:08:32.663Z,24.12
2019-06-10T09:11:02.752Z,23.90
2019-06-10T09:13:33.598Z,24.37
2019-06-10T09:16:14.618Z,24.87
2019-06-10T09:18:34.920Z,29.80
2019-06-10T09:21:05.414Z,26.25
2019-06-10T09:23:35.395Z,23.87
2019-06-10T09:26:05.746Z,25.12
2019-06-10T09:28:36.199Z,24.85
2019-06-10T09:31:06.920Z,25.72
2019-06-10T09:33:37.309Z,27.73
2019-06-10T09:36:07.109Z,34.55
2019-06-10T09:38:36.916Z,26.50
2019-06-10T09:41:06.916Z,24.47
2019-06-10T09:43:37.004Z,24.00
2019-06-10T09:46:07.439Z,27.67
2019-06-10T09:48:37.551Z,25.02
2019-06-10T09:51:07.874Z,28.10
2019-06-10T09:53:42.706Z,25.62
2019-06-10T09:56:08.768Z,25.43
2019-06-10T09:58:39.095Z,29.92
2019-06-10T10:01:09.396Z,26.52
2019-06-10T10:03:39.239Z,29.25
2019-06-10T10:06:15.321Z,24.98
2019-06-10T10:08:41.367Z,30.70
2019-06-10T10:11:12.828Z,26.37
2019-06-10T10:13:45.008Z,22.77
2019-06-10T10:16:13.190Z,27.07
2019-06-10T10:18:47.358Z,24.25
2019-06-10T10:21:13.591Z,26.12
2019-06-10T10:23:56.590Z,27.85
2019-06-10T10:26:14.749Z,24.20
2019-06-10T10:28:46.865Z,28.73
2019-06-10T10:31:16.201Z,23.45
2019-06-10T10:33:46.795Z,25.12
2019-06-10T10:36:16.988Z,25.30
2019-06-10T10:38:47.070Z,24.27
2019-06-10T10:41:17.692Z,24.50
2019-06-10T10:43:51.185Z,26.15
2019-06-10T10:46:18.445Z,27.30
2019-06-10T10:48:49.028Z,25.80
2019-06-10T10:51:19.080Z,25.55
2019-06-10T10:54:15.504Z,29.52
2019-06-10T10:56:22.177Z,31.12
2019-06-10T10:58:55.619Z,28.20
2019-06-10T11:01:23.471Z,24.30
2019-06-10T11:03:58.728Z,27.48
2019-06-10T11:06:23.606Z,26.23
2019-06-10T11:08:55.843Z,27.37
2019-06-10T11:11:24.832Z,28.10
2019-06-10T11:13:56.884Z,23.67
2019-06-10T11:16:25.531Z,24.70
2019-06-10T11:18:56.428Z,29.23
2019-06-10T11:21:26.314Z,26.68
2019-06-10T11:24:01.279Z,24.65
2019-06-10T11:26:27.556Z,24.52
2019-06-10T11:28:58.061Z,26.27
2019-06-10T11:31:28.364Z,25.02
2019-06-10T11:33:59.178Z,28.20
2019-06-10T11:36:29.154Z,24.02
2019-06-10T11:38:59.550Z,31.37
2019-06-10T11:41:29.640Z,23.83
2019-06-10T11:43:59.463Z,28.32
2019-06-10T11:46:29.491Z,33.70
2019-06-10T11:48:59.602Z,32.35
2019-06-10T11:51:29.763Z,26.80
2019-06-10T11:53:59.718Z,29.05
2019-06-10T11:56:33.022Z,32.10
2019-06-10T11:59:07.952Z,30.82
2019-06-10T12:01:31.612Z,30.37
2019-06-10T12:04:04.069Z,31.15
2019-06-10T12:06:33.964Z,36.77
2019-06-10T12:09:03.392Z,29.60
2019-06-10T12:11:34.319Z,36.45
2019-06-10T12:14:04.568Z,34.10
2019-06-10T12:19:05.446Z,29.30
2019-06-10T12:21:35.199Z,33.37
2019-06-10T12:24:05.488Z,33.98
2019-06-10T12:26:35.357Z,32.17
2019-06-10T12:29:06.009Z,32.47
2019-06-10T12:31:36.046Z,28.83
2019-06-10T12:34:06.031Z,33.98
2019-06-10T12:36:35.915Z,28.70
2019-06-10T12:39:10.620Z,31.10
2019-06-10T12:44:12.081Z,26.52
2019-06-10T12:46:43.095Z,29.82
2019-06-10T12:49:14.212Z,28.80
2019-06-10T12:51:46.044Z,27.10
2019-06-10T12:54:15.950Z,28.70
2019-06-10T12:56:46.432Z,34.40
2019-06-10T12:59:17.148Z,30.20
2019-06-10T13:01:47.348Z,32.87
2019-06-10T13:04:17.951Z,31.40
2019-06-10T13:06:48.048Z,31.27
2019-06-10T13:09:18.415Z,32.80
2019-06-10T13:11:49.368Z,33.90
2019-06-10T13:14:21.943Z,29.57
2019-06-10T13:16:52.482Z,35.68
2019-06-10T13:19:23.114Z,36.83
2019-06-10T13:21:52.924Z,33.33
2019-06-10T13:24:22.454Z,32.40
2019-06-10T13:26:53.502Z,37.00
2019-06-10T13:29:25.031Z,33.50
2019-06-10T13:31:54.391Z,35.52
2019-06-10T13:34:24.040Z,37.75
2019-06-10T13:36:53.958Z,33.38
2019-06-10T13:39:26.934Z,32.93
2019-06-10T13:41:57.535Z,38.30
2019-06-10T13:44:26.508Z,35.00
2019-06-10T13:46:59.534Z,33.63
2019-06-10T13:49:29.189Z,35.10
2019-06-10T13:51:59.429Z,33.00
2019-06-10T13:54:29.118Z,36.70
2019-06-10T13:56:59.254Z,40.87
2019-06-10T13:59:28.990Z,37.00
2019-06-10T14:04:44.040Z,37.20
2019-06-10T14:07:24.781Z,42.13
2019-06-10T14:09:56.274Z,40.43
2019-06-10T14:12:26.457Z,42.83
2019-06-10T14:14:55.988Z,38.67
2019-06-10T14:17:25.260Z,37.80
2019-06-10T14:19:53.955Z,39.40
2019-06-10T14:22:24.048Z,37.27
2019-06-10T14:24:53.899Z,36.23
2019-06-10T14:27:24.763Z,45.13
2019-06-10T14:29:52.918Z,41.77
2019-06-10T14:32:22.794Z,43.30
2019-06-10T14:34:52.636Z,38.92
2019-06-10T14:37:34.908Z,40.80
2019-06-10T14:39:52.896Z,38.63
2019-06-10T14:42:23.037Z,42.17
2019-06-10T14:44:53.163Z,36.10
2019-06-10T14:47:23.160Z,44.00
2019-06-10T14:49:53.087Z,41.83
2019-06-10T14:52:22.720Z,39.30
2019-06-10T14:54:53.198Z,37.30
2019-06-10T14:57:22.915Z,43.07
2019-06-10T14:59:53.634Z,43.00
2019-06-10T15:02:23.788Z,43.73
2019-06-10T15:04:53.544Z,41.93
2019-06-10T15:07:23.807Z,44.97
2019-06-10T15:09:53.319Z,41.77
2019-06-10T15:12:23.021Z,41.10
2019-06-10T15:14:53.789Z,43.07
2019-06-10T15:17:23.193Z,44.60
2019-06-10T15:19:53.076Z,44.00
2019-06-10T15:22:23.861Z,45.50
2019-06-10T15:24:53.949Z,39.03
2019-06-10T15:27:29.914Z,44.87
2019-06-10T15:29:53.632Z,46.60
2019-06-10T15:32:33.723Z,38.93
2019-06-10T15:34:55.392Z,43.20
2019-06-10T15:37:28.824Z,46.20
2019-06-10T15:39:57.158Z,47.87
2019-06-10T15:42:26.910Z,46.30
2019-06-10T15:44:57.193Z,47.90
2019-06-10T15:47:27.385Z,40.67
2019-06-10T15:49:57.788Z,44.00
2019-06-10T15:52:27.628Z,43.27
2019-06-10T15:54:58.408Z,37.47
2019-06-10T15:57:39.319Z,46.40
2019-06-10T15:59:58.832Z,48.80
2019-06-10T16:02:28.840Z,42.63
2019-06-10T16:04:58.921Z,49.77
2019-06-10T16:07:29.005Z,41.03
2019-06-10T16:10:02.700Z,43.50
2019-06-10T16:12:32.904Z,45.53
2019-06-10T16:15:02.656Z,42.30
2019-06-10T16:17:33.185Z,42.63
2019-06-10T16:20:03.626Z,45.97
2019-06-10T16:22:31.607Z,40.30
2019-06-10T16:25:03.467Z,39.53
2019-06-10T16:27:46.290Z,44.53
2019-06-10T16:30:03.797Z,43.70
2019-06-10T16:32:33.628Z,44.20
2019-06-10T16:35:04.024Z,42.83
2019-06-10T16:37:33.877Z,39.80
2019-06-10T16:40:03.490Z,44.83
2019-06-10T16:42:33.332Z,45.73
2019-06-10T16:45:03.397Z,47.77
2019-06-10T16:47:32.825Z,45.07
2019-06-10T16:50:03.709Z,44.17
2019-06-10T16:52:34.252Z,41.67
2019-06-10T16:55:03.003Z,44.00
2019-06-10T16:57:33.442Z,48.03
2019-06-10T17:00:10.907Z,42.47
2019-06-10T17:02:33.370Z,50.53
2019-06-10T17:05:03.293Z,46.87
2019-06-10T17:07:32.995Z,42.83
2019-06-10T17:10:02.597Z,40.27
2019-06-10T17:12:33.129Z,44.17
2019-06-10T17:15:03.581Z,41.97
2019-06-10T17:17:34.109Z,47.13
2019-06-10T17:20:04.846Z,45.70
2019-06-10T17:22:35.550Z,46.30
2019-06-10T17:25:06.277Z,41.87
2019-06-10T17:27:36.851Z,41.93
2019-06-10T17:30:06.496Z,40.93
2019-06-10T17:32:36.844Z,41.37
2019-06-10T17:35:09.491Z,41.80
2019-06-10T17:37:39.039Z,45.80
2019-06-10T17:40:08.743Z,37.70
2019-06-10T17:42:38.747Z,49.00
2019-06-10T17:45:08.304Z,44.17
2019-06-10T17:47:38.593Z,41.40
2019-06-10T17:50:08.727Z,40.40
2019-06-10T17:52:38.986Z,46.30
2019-06-10T17:55:12.559Z,48.90
2019-06-10T17:57:42.992Z,45.23
2019-06-10T18:00:14.900Z,39.47
2019-06-10T18:02:53.531Z,47.17
2019-06-10T18:05:22.517Z,43.73
2019-06-10T18:07:52.689Z,44.73
2019-06-10T18:10:23.992Z,41.30
2019-06-10T18:12:52.943Z,44.00
2019-06-10T18:15:24.043Z,39.60
2019-06-10T18:17:55.876Z,38.70
2019-06-10T18:20:24.413Z,39.70
2019-06-10T18:22:54.104Z,44.00
2019-06-10T18:25:24.581Z,44.57
2019-06-10T18:27:54.912Z,42.93
2019-06-10T18:30:25.117Z,44.13
2019-06-10T18:32:55.075Z,42.70
2019-06-10T18:35:25.842Z,44.87
2019-06-10T18:37:55.234Z,42.90
2019-06-10T18:40:25.315Z,40.90
2019-06-10T18:42:55.674Z,45.73
2019-06-10T18:45:26.016Z,43.57
2019-06-10T18:47:55.622Z,42.87
2019-06-10T18:50:26.068Z,43.53
2019-06-10T18:52:57.362Z,44.07
2019-06-10T18:55:26.254Z,44.70
2019-06-10T18:57:56.848Z,43.00
2019-06-10T19:00:39.912Z,42.97
2019-06-10T19:03:09.236Z,41.70
2019-06-10T19:05:28.519Z,45.73
2019-06-10T19:07:58.706Z,43.17
2019-06-10T19:10:29.464Z,45.30
2019-06-10T19:12:59.560Z,47.83
2019-06-10T19:15:31.857Z,44.63
2019-06-10T19:18:03.187Z,41.70
2019-06-10T19:20:36.443Z,43.93
2019-06-10T19:23:04.242Z,46.37
2019-06-10T19:25:37.255Z,46.83
2019-06-10T19:28:05.268Z,46.00
2019-06-10T19:30:37.704Z,44.87
2019-06-10T19:33:05.589Z,49.50
2019-06-10T19:35:36.666Z,42.10
2019-06-10T19:38:05.784Z,47.70
2019-06-10T19:40:37.168Z,47.70
2019-06-10T19:43:06.907Z,45.53
2019-06-10T19:45:36.693Z,42.77
2019-06-10T19:48:06.750Z,46.00
2019-06-10T19:50:37.582Z,43.87
2019-06-10T19:53:07.798Z,43.77
2019-06-10T19:55:38.958Z,49.13
2019-06-10T19:58:10.553Z,47.60
2019-06-10T20:00:41.502Z,44.63
2019-06-10T20:03:12.051Z,46.93
2019-06-10T20:05:44.878Z,45.13
2019-06-10T20:08:12.828Z,45.17
2019-06-10T20:10:42.660Z,49.87
2019-06-10T20:13:12.673Z,51.63
2019-06-10T20:15:45.016Z,47.70
2019-06-10T20:18:13.786Z,47.47
2019-06-10T20:20:45.870Z,48.23
2019-06-10T20:23:14.932Z,45.97
2019-06-10T20:25:46.841Z,51.23
2019-06-10T20:28:16.024Z,46.00
2019-06-10T20:30:47.786Z,40.73
2019-06-10T20:33:16.908Z,46.87
2019-06-10T20:35:47.245Z,41.63
2019-06-10T20:38:17.232Z,51.73
2019-06-10T20:40:48.714Z,42.70
2019-06-10T20:43:19.586Z,43.60
2019-06-10T20:45:50.121Z,42.67
2019-06-10T20:48:22.461Z,45.83
2019-06-10T20:50:53.188Z,47.93
2019-06-10T20:53:21.315Z,42.47
2019-06-10T20:55:54.997Z,41.53
2019-06-10T20:58:22.494Z,50.23
2019-06-10T21:00:53.952Z,43.77
2019-06-10T21:03:23.159Z,45.60
2019-06-10T21:05:53.497Z,45.37
2019-06-10T21:08:23.124Z,47.43
2019-06-10T21:10:54.555Z,45.00
2019-06-10T21:13:24.494Z,42.07
2019-06-10T21:15:55.591Z,47.53
2019-06-10T21:18:24.687Z,39.87
2019-06-10T21:20:56.280Z,51.33
2019-06-10T21:23:26.752Z,43.50
2019-06-10T21:25:56.385Z,42.47
2019-06-10T21:28:27.214Z,46.57
2019-06-10T21:30:58.842Z,50.37
2019-06-10T21:33:28.096Z,47.27
2019-06-10T21:35:58.113Z,46.60
2019-06-10T21:38:27.863Z,50.10
2019-06-10T21:40:58.331Z,51.13
2019-06-10T21:43:27.544Z,42.20
2019-06-10T21:45:57.883Z,52.40
2019-06-10T21:48:27.865Z,49.27
2019-06-10T21:50:57.418Z,50.00
2019-06-10T21:53:26.882Z,46.13
2019-06-10T21:55:56.508Z,48.73
2019-06-10T21:58:26.509Z,44.60
2019-06-10T22:01:10.846Z,45.40
2019-06-10T22:03:26.801Z,56.63
2019-06-10T22:05:56.830Z,56.70
2019-06-10T22:08:26.913Z,41.63
2019-06-10T22:10:56.759Z,54.37
2019-06-10T22:13:26.753Z,48.73
2019-06-10T22:15:57.166Z,52.73
2019-06-10T22:18:26.909Z,60.70
2019-06-10T22:20:57.945Z,55.53
2019-06-10T22:23:28.648Z,68.33
2019-06-10T22:25:58.745Z,73.90
2019-06-10T22:28:29.054Z,65.37
2019-06-10T22:31:15.157Z,56.27
2019-06-10T22:33:29.626Z,59.40
2019-06-10T22:35:59.456Z,52.20
2019-06-10T22:38:29.469Z,54.00
2019-06-10T22:40:59.314Z,43.30
2019-06-10T22:43:29.090Z,54.70
2019-06-10T22:45:59.878Z,48.03
2019-06-10T22:48:28.705Z,45.70
2019-06-10T22:50:59.551Z,51.30
2019-06-10T22:53:28.972Z,50.30
2019-06-10T22:55:59.243Z,54.60
2019-06-10T22:58:28.112Z,48.13
2019-06-10T23:00:57.893Z,45.47
2019-06-10T23:03:27.161Z,42.93
2019-06-10T23:05:56.849Z,53.20
2019-06-10T23:08:26.266Z,43.27
2019-06-10T23:10:58.107Z,46.10
2019-06-10T23:13:28.677Z,43.50
2019-06-10T23:15:58.660Z,49.27
2019-06-10T23:18:28.461Z,43.10
2019-06-10T23:20:59.711Z,48.10
2019-06-10T23:23:28.237Z,47.00
2019-06-10T23:25:58.178Z,50.13
2019-06-10T23:28:28.513Z,57.20
2019-06-10T23:31:00.215Z,51.03
2019-06-10T23:33:29.308Z,60.23
2019-06-10T23:36:01.399Z,53.10
2019-06-10T23:38:32.964Z,54.57
2019-06-10T23:41:03.770Z,57.90
2019-06-10T23:43:33.013Z,59.50
2019-06-10T23:46:04.414Z,53.70
2019-06-10T23:48:33.365Z,58.53
2019-06-10T23:51:04.911Z,57.03
2019-06-10T23:53:33.503Z,67.43
2019-06-10T23:56:04.869Z,58.40
2019-06-10T23:58:33.956Z,60.37
